Time;durP1;ratioP1;P1;durP2;ratioP2;P2;SDS_P1;SDS_P2;PMS_P1;PMS_P2;Temp;Humidity;BMP_temperature;BMP_pressure;BME280_temperature;BME280_humidity;BME280_pressure;Samples;Min_cycle;Max_cycle;Signal;HPM_P1;HPM_P2
2023/11/26 00:01:43;;;;;;;32.50;17.20;;;;;;;0.17;100.00;97648.46;271643;1269;22535;-85
2023/11/26 00:07:45;;;;;;;33.70;16.90;;;;;;;0.19;100.00;97647.59;270922;1269;23473;-86
2023/11/26 00:13:46;;;;;;;33.00;17.70;;;;;;;0.20;100.00;97649.08;272737;1269;22601;-85
2023/11/26 00:19:51;;;;;;;39.70;17.50;;;;;;;0.22;100.00;97655.67;273226;1264;23522;-83
2023/11/26 00:25:53;;;;;;;35.80;16.90;;;;;;;0.24;100.00;97654.73;270987;1269;22577;-84
2023/11/26 00:32:03;;;;;;;33.60;17.60;;;;;;;0.27;100.00;97657.15;271696;1269;23536;-87
2023/11/26 00:38:13;;;;;;;37.40;18.40;;;;;;;0.28;100.00;97658.25;272564;1260;22178;-84
2023/11/26 00:44:16;;;;;;;38.10;19.80;;;;;;;0.29;100.00;97654.05;272147;1263;22703;-85
2023/11/26 00:50:18;;;;;;;39.60;17.90;;;;;;;0.32;100.00;97655.68;272105;1269;22441;-85
2023/11/26 00:56:20;;;;;;;39.10;18.40;;;;;;;0.32;100.00;97658.27;272162;1264;22230;-84
2023/11/26 01:02:22;;;;;;;34.70;16.50;;;;;;;0.31;100.00;97660.58;272829;1269;22685;-84
2023/11/26 01:08:31;;;;;;;33.50;17.60;;;;;;;0.31;100.00;97659.71;272796;1269;22375;-85
2023/11/26 01:14:48;;;;;;;35.50;17.90;;;;;;;0.29;100.00;97657.73;273074;1268;22306;-84
2023/11/26 01:20:49;;;;;;;36.10;18.70;;;;;;;0.27;100.00;97661.75;272752;1269;23026;-84
2023/11/26 01:26:50;;;;;;;34.90;18.30;;;;;;;0.25;100.00;97665.55;273017;1268;22326;-86
2023/11/26 01:32:52;;;;;;;34.10;18.60;;;;;;;0.26;100.00;97670.42;272928;1268;23473;-87
2023/11/26 01:38:53;;;;;;;39.30;18.70;;;;;;;0.29;100.00;97671.02;273248;1268;22278;-86
2023/11/26 01:44:54;;;;;;;35.00;17.10;;;;;;;0.29;100.00;97672.74;273274;1268;23445;-84
2023/11/26 01:50:55;;;;;;;33.20;18.30;;;;;;;0.29;100.00;97678.73;273149;1268;22409;-84
2023/11/26 01:56:57;;;;;;;39.40;20.60;;;;;;;0.27;100.00;97682.96;273321;1268;22301;-86
2023/11/26 02:02:59;;;;;;;36.90;18.10;;;;;;;0.22;100.00;97690.59;273279;1268;23643;-85
2023/11/26 02:09:20;;;;;;;36.80;19.20;;;;;;;0.19;100.00;97696.57;272993;1260;22471;-85
2023/11/26 02:15:24;;;;;;;29.00;15.00;;;;;;;0.18;100.00;97702.62;273168;1267;22496;-84
2023/11/26 02:22:09;;;;;;;15.90;8.30;;;;;;;0.14;100.00;97706.86;273298;1268;22231;-84
2023/11/26 02:28:10;;;;;;;10.50;4.90;;;;;;;0.07;100.00;97713.58;273179;1268;22205;-84
2023/11/26 02:34:11;;;;;;;9.90;4.20;;;;;;;0.03;100.00;97720.55;272008;1260;99726;-84
2023/11/26 02:40:15;;;;;;;8.50;3.90;;;;;;;0.01;100.00;97731.16;270726;1269;23005;-84
2023/11/26 02:46:38;;;;;;;7.50;4.00;;;;;;;-0.06;100.00;97731.71;271500;1269;23611;-84
2023/11/26 02:52:39;;;;;;;7.50;3.90;;;;;;;-0.16;100.00;97742.83;273575;1269;22212;-84
2023/11/26 02:58:41;;;;;;;6.20;3.60;;;;;;;-0.24;100.00;97751.02;272132;1269;22592;-84
2023/11/26 03:04:48;;;;;;;8.80;4.50;;;;;;;-0.29;100.00;97756.61;270539;1268;22546;-83
2023/11/26 03:17:13;;;;;;;7.80;4.10;;;;;;;-0.38;100.00;97764.05;271013;1269;23221;-87
2023/11/26 03:23:15;;;;;;;9.10;4.70;;;;;;;-0.42;100.00;97765.71;270360;1269;24203;-84
2023/11/26 03:29:19;;;;;;;10.00;5.30;;;;;;;-0.43;100.00;97769.95;270604;1266;22691;-83
2023/11/26 03:35:20;;;;;;;9.00;5.30;;;;;;;-0.41;100.00;97774.63;272431;1269;127465;-84
2023/11/26 03:41:21;;;;;;;11.60;5.70;;;;;;;-0.39;100.00;97775.17;272879;1269;22195;-84
2023/11/26 03:47:23;;;;;;;12.30;7.10;;;;;;;-0.34;100.00;97782.70;270944;1268;22791;-83
2023/11/26 03:53:24;;;;;;;10.70;6.30;;;;;;;-0.32;100.00;97791.17;271500;1269;25326;-84
2023/11/26 03:59:25;;;;;;;10.50;5.60;;;;;;;-0.32;100.00;97799.46;271032;1268;22546;-84
2023/11/26 04:05:27;;;;;;;11.50;6.00;;;;;;;-0.37;100.00;97803.84;271256;1263;22527;-84
2023/11/26 04:11:28;;;;;;;11.70;6.20;;;;;;;-0.36;100.00;97809.24;271382;1269;22416;-84
2023/11/26 04:17:29;;;;;;;13.60;7.20;;;;;;;-0.32;100.00;97815.67;272367;1266;22397;-84
2023/11/26 04:23:30;;;;;;;12.80;6.40;;;;;;;-0.29;100.00;97820.52;272956;1269;22437;-84
2023/11/26 04:29:31;;;;;;;10.40;6.40;;;;;;;-0.30;100.00;97823.41;273352;1269;22213;-84
2023/11/26 04:35:32;;;;;;;11.50;6.80;;;;;;;-0.35;100.00;97837.32;273008;1267;22426;-83
2023/11/26 04:41:33;;;;;;;10.80;6.50;;;;;;;-0.40;100.00;97841.45;270781;1269;27752;-84
2023/11/26 04:47:35;;;;;;;13.10;7.00;;;;;;;-0.48;100.00;97848.23;271806;1269;22192;-86
2023/11/26 04:53:36;;;;;;;10.60;6.00;;;;;;;-0.55;100.00;97864.98;273161;1269;22531;-83
2023/11/26 04:59:39;;;;;;;10.90;6.80;;;;;;;-0.62;100.00;97873.44;273350;1269;22234;-83
2023/11/26 05:05:40;;;;;;;12.60;6.70;;;;;;;-0.65;100.00;97885.63;272533;1268;22912;-83
2023/11/26 05:11:45;;;;;;;14.30;7.10;;;;;;;-0.68;100.00;97896.50;272505;1269;23959;-81
2023/11/26 05:17:47;;;;;;;23.80;9.70;;;;;;;-0.71;100.00;97905.22;272981;1269;22368;-84
2023/11/26 05:23:48;;;;;;;19.00;9.30;;;;;;;-0.74;100.00;97917.17;272227;1268;24341;-83
2023/11/26 05:29:49;;;;;;;16.60;7.20;;;;;;;-0.76;100.00;97932.83;270592;1269;22644;-84
2023/11/26 05:35:50;;;;;;;17.00;8.10;;;;;;;-0.79;100.00;97944.73;271619;1266;23743;-83
2023/11/26 05:41:55;;;;;;;14.00;7.80;;;;;;;-0.78;100.00;97938.85;273258;1269;22275;-84
2023/11/26 05:47:59;;;;;;;13.90;7.20;;;;;;;-0.80;100.00;97950.55;273020;1269;23731;-83
2023/11/26 05:54:00;;;;;;;13.60;8.40;;;;;;;-0.85;100.00;97973.70;272959;1269;22552;-82
2023/11/26 06:00:03;;;;;;;12.70;7.40;;;;;;;-0.90;100.00;97989.63;272384;1266;22482;-83
2023/11/26 06:06:24;;;;;;;11.60;6.00;;;;;;;-0.95;100.00;97995.02;270415;1272;23594;-82
2023/11/26 06:12:25;;;;;;;12.70;5.70;;;;;;;-1.01;100.00;98005.42;269929;1272;22632;-82
2023/11/26 06:18:26;;;;;;;10.20;5.20;;;;;;;-1.06;100.00;98012.52;270437;1272;23327;-82
2023/11/26 06:24:28;;;;;;;9.00;5.30;;;;;;;-1.08;100.00;98016.13;271777;1272;22140;-84
2023/11/26 06:30:29;;;;;;;11.30;5.70;;;;;;;-1.09;100.00;98019.07;271744;1272;22612;-84
2023/11/26 06:36:30;;;;;;;11.70;6.30;;;;;;;-1.11;100.00;98026.31;269971;1269;22657;-83
2023/11/26 06:42:32;;;;;;;11.40;5.70;;;;;;;-1.09;100.00;98037.56;270938;1269;22397;-83
2023/11/26 06:48:33;;;;;;;12.90;7.10;;;;;;;-1.07;100.00;98050.91;271545;1268;22414;-82
2023/11/26 06:54:34;;;;;;;12.70;6.90;;;;;;;-1.04;100.00;98057.98;272445;1269;23734;-82
2023/11/26 07:00:36;;;;;;;12.00;6.90;;;;;;;-0.99;100.00;98064.70;272260;1269;22416;-83
2023/11/26 07:06:40;;;;;;;13.10;7.10;;;;;;;-0.96;100.00;98076.73;273271;1269;23030;-84
2023/11/26 07:12:41;;;;;;;12.40;6.70;;;;;;;-0.89;100.00;98085.36;273171;1260;22505;-83
2023/11/26 07:18:42;;;;;;;12.80;6.90;;;;;;;-0.84;100.00;98095.27;272823;1269;24529;-82
2023/11/26 07:24:43;;;;;;;14.80;7.20;;;;;;;-0.79;100.00;98098.97;273263;1269;23451;-82
2023/11/26 07:30:45;;;;;;;14.30;7.50;;;;;;;-0.74;100.00;98104.02;273303;1269;22213;-84
2023/11/26 07:36:50;;;;;;;12.20;7.40;;;;;;;-0.71;100.00;98109.82;273359;1269;22359;-84
2023/11/26 07:42:51;;;;;;;13.80;7.80;;;;;;;-0.69;100.00;98109.02;271124;1264;23681;-84
2023/11/26 07:48:52;;;;;;;17.40;8.00;;;;;;;-0.67;100.00;98114.66;270783;1263;22472;-82
2023/11/26 07:54:53;;;;;;;16.10;9.20;;;;;;;-0.65;100.00;98118.67;272017;1269;22307;-83
2023/11/26 08:00:55;;;;;;;12.60;7.70;;;;;;;-0.66;100.00;98121.55;273025;1266;23151;-82
2023/11/26 08:06:56;;;;;;;14.60;6.70;;;;;;;-0.66;100.00;98120.39;273601;1269;23270;-83
2023/11/26 08:12:58;;;;;;;10.90;6.20;;;;;;;-0.70;100.00;98117.02;273183;1269;23205;-83
2023/11/26 08:19:05;;;;;;;9.40;5.10;;;;;;;-0.64;100.00;98120.64;273094;1266;22424;-83
2023/11/26 08:25:12;;;;;;;10.70;5.30;;;;;;;-0.44;100.00;98122.52;271115;1267;22547;-83
2023/11/26 08:31:15;;;;;;;14.30;6.00;;;;;;;-0.23;100.00;98125.29;270041;1269;23261;-83
2023/11/26 08:37:17;;;;;;;12.90;5.60;;;;;;;-0.02;100.00;98129.79;272802;1269;22570;-83
2023/11/26 08:43:19;;;;;;;11.80;6.00;;;;;;;0.33;100.00;98132.56;270409;1269;22539;-84
2023/11/26 08:49:23;;;;;;;8.50;5.20;;;;;;;0.72;100.00;98136.00;272855;1269;22416;-85
2023/11/26 08:55:33;;;;;;;11.60;6.50;;;;;;;0.86;100.00;98144.73;272853;1269;22640;-85
2023/11/26 09:01:34;;;;;;;8.70;5.10;;;;;;;1.09;100.00;98153.17;272274;1267;22393;-85
2023/11/26 09:07:42;;;;;;;10.10;5.00;;;;;;;1.28;100.00;98152.48;272908;1269;23411;-84
2023/11/26 09:13:46;;;;;;;7.60;4.60;;;;;;;1.82;100.00;98163.42;272859;1268;22554;-87
2023/11/26 09:19:47;;;;;;;7.40;4.10;;;;;;;2.03;100.00;98164.43;271412;1269;22605;-87
2023/11/26 09:25:48;;;;;;;9.10;4.30;;;;;;;2.01;99.85;98163.95;270643;1269;22543;-86
2023/11/26 09:31:49;;;;;;;8.00;4.00;;;;;;;1.69;99.41;98161.57;272283;1269;22441;-86
2023/11/26 09:37:50;;;;;;;7.80;3.80;;;;;;;1.21;98.91;98159.58;270612;1269;22485;-85
2023/11/26 09:43:51;;;;;;;8.80;4.50;;;;;;;1.05;99.22;98159.94;272170;1269;22631;-85
2023/11/26 09:49:53;;;;;;;9.40;4.70;;;;;;;1.11;98.59;98160.60;272159;1268;22534;-86
2023/11/26 09:55:55;;;;;;;13.70;6.40;;;;;;;0.81;97.86;98164.87;271732;1267;22873;-85
2023/11/26 10:01:58;;;;;;;14.70;6.30;;;;;;;0.79;97.98;98164.79;272396;1263;23219;-86
2023/11/26 10:07:59;;;;;;;12.70;6.10;;;;;;;0.59;97.23;98163.05;273126;1269;22887;-85
2023/11/26 10:14:00;;;;;;;9.80;5.70;;;;;;;0.43;97.25;98175.98;272722;1263;22519;-84
2023/11/26 10:20:22;;;;;;;13.90;7.20;;;;;;;0.37;96.84;98183.73;272921;1262;22428;-84
2023/11/26 10:26:26;;;;;;;13.20;6.30;;;;;;;0.31;96.61;98191.09;273093;1269;22215;-86
2023/11/26 10:32:27;;;;;;;8.80;5.10;;;;;;;0.16;95.74;98210.28;271626;1267;22553;-86
2023/11/26 10:38:34;;;;;;;8.60;3.80;;;;;;;0.00;95.86;98216.03;270652;1269;24256;-84
2023/11/26 10:44:36;;;;;;;7.20;4.50;;;;;;;-0.02;96.00;98214.71;271364;1269;23576;-84
2023/11/26 10:50:41;;;;;;;9.40;4.70;;;;;;;0.02;95.70;98219.64;270936;1263;22883;-83
2023/11/26 10:56:45;;;;;;;10.10;5.10;;;;;;;0.05;95.52;98225.61;273168;1269;23010;-85
2023/11/26 11:02:48;;;;;;;10.40;4.50;;;;;;;0.02;95.22;98236.80;272912;1269;22444;-86
2023/11/26 11:08:50;;;;;;;12.40;5.70;;;;;;;-0.04;94.73;98238.27;272917;1261;23649;-84
2023/11/26 11:14:53;;;;;;;9.10;3.60;;;;;;;-0.01;94.60;98235.07;270966;1269;22533;-84
2023/11/26 11:21:16;;;;;;;8.50;3.50;;;;;;;-0.05;93.70;98236.06;272071;1269;22262;-83
2023/11/26 11:27:18;;;;;;;6.60;3.20;;;;;;;-0.10;93.05;98238.17;271547;1266;22213;-85
2023/11/26 11:33:19;;;;;;;5.90;3.20;;;;;;;-0.14;93.05;98246.60;272891;1268;22445;-86
2023/11/26 11:39:27;;;;;;;6.80;2.80;;;;;;;-0.15;93.06;98252.02;273188;1269;22465;-84
2023/11/26 11:45:29;;;;;;;5.10;2.80;;;;;;;-0.17;92.84;98248.46;273009;1269;22947;-85
2023/11/26 11:51:36;;;;;;;5.40;2.50;;;;;;;-0.17;92.74;98254.18;273020;1261;22428;-84
2023/11/26 11:57:48;;;;;;;6.30;3.20;;;;;;;-0.20;92.59;98264.86;272855;1268;23899;-85
2023/11/26 12:03:49;;;;;;;12.10;5.10;;;;;;;-0.24;92.09;98273.64;272639;1269;22732;-85
2023/11/26 12:09:52;;;;;;;11.10;5.10;;;;;;;-0.29;92.45;98277.88;271931;1269;22542;-85
2023/11/26 12:15:54;;;;;;;14.70;6.60;;;;;;;-0.32;93.04;98285.70;271510;1269;22548;-84
2023/11/26 12:22:05;;;;;;;9.40;5.00;;;;;;;-0.37;93.39;98289.31;270104;1268;22259;-83
2023/11/26 12:28:12;;;;;;;8.50;4.20;;;;;;;-0.41;93.25;98294.28;271452;1267;22569;-83
2023/11/26 12:34:13;;;;;;;7.90;3.90;;;;;;;-0.44;93.17;98297.14;270700;1269;22641;-83
2023/11/26 12:40:15;;;;;;;9.60;3.60;;;;;;;-0.41;92.90;98296.20;272852;1267;22343;-83
2023/11/26 12:46:16;;;;;;;6.60;3.20;;;;;;;-0.37;92.23;98300.45;273075;1267;22354;-84
2023/11/26 12:52:17;;;;;;;10.30;3.60;;;;;;;-0.35;91.90;98309.05;273040;1261;22386;-83
2023/11/26 12:58:19;;;;;;;6.20;3.40;;;;;;;-0.37;91.54;98311.87;272860;1268;22584;-82
2023/11/26 13:04:33;;;;;;;9.20;3.70;;;;;;;-0.36;91.62;98310.23;273087;1268;22413;-84
2023/11/26 13:10:44;;;;;;;6.50;3.50;;;;;;;-0.33;91.06;98311.73;273154;1268;22229;-83
2023/11/26 13:16:47;;;;;;;10.80;3.80;;;;;;;-0.27;91.09;98319.71;273085;1269;23652;-83
2023/11/26 13:22:53;;;;;;;8.40;3.60;;;;;;;-0.22;91.09;98330.61;272959;1269;22383;-84
2023/11/26 13:28:57;;;;;;;9.30;4.20;;;;;;;-0.21;91.02;98335.47;272796;1260;23180;-86
2023/11/26 13:34:58;;;;;;;11.20;4.70;;;;;;;-0.17;90.92;98340.11;271630;1267;22346;-82
2023/11/26 13:41:00;;;;;;;8.60;2.90;;;;;;;-0.19;90.52;98348.53;265551;1260;10002688;-83
2023/11/26 13:47:03;;;;;;;8.20;2.80;;;;;;;-0.25;90.17;98349.14;273014;1267;22425;-84
2023/11/26 13:53:06;;;;;;;7.10;2.90;;;;;;;-0.28;90.00;98356.78;272959;1267;22392;-84
2023/11/26 13:59:07;;;;;;;8.40;3.60;;;;;;;-0.30;90.12;98363.90;272990;1267;22406;-84
2023/11/26 14:05:13;;;;;;;7.60;3.40;;;;;;;-0.33;90.16;98369.23;272489;1264;22229;-85
2023/11/26 14:11:16;;;;;;;6.60;3.50;;;;;;;-0.33;90.34;98377.84;271999;1267;24600;-84
2023/11/26 14:17:17;;;;;;;8.10;3.80;;;;;;;-0.36;90.45;98387.46;273123;1257;22381;-83
2023/11/26 14:23:21;;;;;;;11.10;5.20;;;;;;;-0.46;89.89;98394.38;273143;1267;22352;-84
2023/11/26 14:29:27;;;;;;;7.10;3.90;;;;;;;-0.53;89.87;98400.09;273160;1267;22414;-83
2023/11/26 14:35:29;;;;;;;5.30;3.10;;;;;;;-0.61;89.63;98403.33;273304;1267;22395;-83
2023/11/26 14:41:30;;;;;;;8.00;3.70;;;;;;;-0.80;89.91;98405.30;273114;1267;22351;-84
2023/11/26 14:47:33;;;;;;;8.70;4.80;;;;;;;-0.91;90.23;98399.42;272990;1260;23061;-83
2023/11/26 14:53:34;;;;;;;8.60;4.10;;;;;;;-0.94;90.47;98403.31;273081;1267;22226;-82
2023/11/26 14:59:35;;;;;;;10.00;4.30;;;;;;;-0.92;90.66;98401.05;273206;1257;22358;-82
2023/11/26 15:05:36;;;;;;;9.70;3.80;;;;;;;-0.91;90.59;98402.13;273284;1263;22462;-83
2023/11/26 15:11:37;;;;;;;10.00;4.80;;;;;;;-0.93;90.07;98407.78;273206;1267;23460;-84
2023/11/26 15:17:40;;;;;;;11.50;5.20;;;;;;;-0.93;90.24;98412.08;273209;1267;22209;-84
2023/11/26 15:23:41;;;;;;;14.60;5.60;;;;;;;-0.93;90.20;98415.11;273209;1260;22952;-83
2023/11/26 15:29:46;;;;;;;10.60;4.60;;;;;;;-0.96;90.00;98419.05;273207;1267;22220;-83
2023/11/26 15:35:47;;;;;;;11.30;4.40;;;;;;;-1.00;90.12;98421.59;272818;1267;121095;-82
2023/11/26 15:41:52;;;;;;;10.70;5.20;;;;;;;-1.03;90.16;98416.61;273217;1267;22275;-82
2023/11/26 15:47:53;;;;;;;10.20;4.70;;;;;;;-1.03;90.38;98421.10;273228;1262;22412;-82
2023/11/26 15:53:55;;;;;;;13.60;5.50;;;;;;;-1.02;90.14;98423.98;273212;1260;22216;-82
2023/11/26 15:59:56;;;;;;;10.80;5.20;;;;;;;-1.02;90.09;98424.23;273450;1267;22436;-81
2023/11/26 16:05:57;;;;;;;16.50;6.50;;;;;;;-1.01;90.24;98425.04;273285;1256;22349;-84
2023/11/26 16:12:08;;;;;;;12.30;6.10;;;;;;;-1.01;90.17;98425.05;273171;1267;22230;-81
2023/11/26 16:18:10;;;;;;;13.30;6.20;;;;;;;-1.00;90.34;98421.70;273175;1267;22220;-81
2023/11/26 16:24:11;;;;;;;16.10;7.50;;;;;;;-0.98;90.99;98421.20;273255;1266;22207;-82
2023/11/26 16:30:16;;;;;;;19.00;9.00;;;;;;;-0.98;91.72;98424.96;273227;1266;22373;-82
2023/11/26 16:36:21;;;;;;;13.70;7.90;;;;;;;-1.01;91.99;98427.34;273262;1261;23525;-82
2023/11/26 16:42:22;;;;;;;17.20;7.60;;;;;;;-1.04;92.65;98427.66;273145;1260;23705;-81
2023/11/26 16:48:23;;;;;;;18.70;8.00;;;;;;;-1.07;92.80;98429.05;273320;1257;22438;-80
2023/11/26 16:54:24;;;;;;;12.50;7.30;;;;;;;-1.12;92.99;98431.04;273231;1260;22540;-81
2023/11/26 17:00:32;;;;;;;17.80;8.00;;;;;;;-1.15;92.99;98433.64;273088;1260;23230;-81
2023/11/26 17:06:35;;;;;;;20.10;9.30;;;;;;;-1.19;93.32;98442.58;273141;1263;22340;-81
2023/11/26 17:12:37;;;;;;;18.90;9.10;;;;;;;-1.20;94.22;98450.00;273055;1260;22420;-81
2023/11/26 17:18:51;;;;;;;17.00;9.90;;;;;;;-1.24;94.78;98446.61;273160;1267;22396;-82
2023/11/26 17:24:59;;;;;;;25.20;11.10;;;;;;;-1.26;95.80;98446.89;272947;1267;22338;-82
2023/11/26 17:31:04;;;;;;;19.30;10.20;;;;;;;-1.25;96.41;98449.61;273257;1260;22385;-83
2023/11/26 17:37:33;;;;;;;19.40;11.00;;;;;;;-1.28;96.55;98448.90;273290;1259;23562;-82
2023/11/26 17:43:58;;;;;;;20.10;10.20;;;;;;;-1.34;96.70;98449.39;272487;1260;23099;-81
2023/11/26 17:50:05;;;;;;;18.90;10.00;;;;;;;-1.38;96.84;98457.56;272230;1267;22415;-82
2023/11/26 17:56:15;;;;;;;16.90;9.00;;;;;;;-1.44;96.60;98457.66;273016;1269;22857;-82
2023/11/26 18:02:25;;;;;;;19.10;8.50;;;;;;;-1.46;96.76;98458.30;272681;1260;22348;-81
2023/11/26 18:08:28;;;;;;;19.10;9.00;;;;;;;-1.47;97.02;98451.98;272698;1263;25361;-82
2023/11/26 18:14:30;;;;;;;20.90;9.30;;;;;;;-1.46;96.91;98457.45;271507;1254;22540;-82
2023/11/26 18:20:37;;;;;;;17.50;9.20;;;;;;;-1.46;97.01;98456.54;271439;1267;22387;-83
2023/11/26 18:26:45;;;;;;;23.50;10.60;;;;;;;-1.50;96.91;98460.44;273252;1263;22435;-84
2023/11/26 18:32:48;;;;;;;23.90;9.90;;;;;;;-1.56;96.91;98461.58;272948;1265;22193;-84
2023/11/26 18:38:50;;;;;;;18.70;9.80;;;;;;;-1.60;97.03;98462.54;273315;1260;23445;-84
2023/11/26 18:44:52;;;;;;;23.40;11.30;;;;;;;-1.67;97.23;98467.39;273376;1260;22453;-83
2023/11/26 18:50:53;;;;;;;32.80;12.60;;;;;;;-1.74;97.43;98469.57;273657;1267;22240;-85
2023/11/26 18:56:55;;;;;;;27.10;12.60;;;;;;;-1.79;97.65;98474.46;273326;1259;22436;-83
2023/11/26 19:03:00;;;;;;;28.20;12.20;;;;;;;-1.82;97.93;98483.83;273299;1267;23345;-83
2023/11/26 19:09:02;;;;;;;21.40;11.40;;;;;;;-1.83;98.12;98490.13;273131;1266;23349;-83
2023/11/26 19:15:06;;;;;;;28.60;12.00;;;;;;;-1.84;98.30;98496.46;273256;1260;22211;-84
2023/11/26 19:21:07;;;;;;;19.60;10.70;;;;;;;-1.83;98.28;98498.39;272951;1260;22610;-84
2023/11/26 19:27:08;;;;;;;25.20;11.00;;;;;;;-1.86;98.29;98502.17;273586;1262;22202;-83
2023/11/26 19:33:09;;;;;;;19.70;10.30;;;;;;;-1.87;98.38;98501.44;273549;1266;23034;-84
2023/11/26 19:39:17;;;;;;;22.50;10.50;;;;;;;-1.88;98.40;98499.10;273385;1260;22223;-83
2023/11/26 19:45:28;;;;;;;19.60;9.60;;;;;;;-1.84;98.64;98501.61;273370;1260;22195;-83
2023/11/26 19:51:30;;;;;;;21.00;9.80;;;;;;;-1.79;98.70;98496.71;273446;1260;22396;-84
2023/11/26 19:57:31;;;;;;;22.50;9.20;;;;;;;-1.78;98.73;98495.99;273110;1267;22422;-85
2023/11/26 20:03:36;;;;;;;18.70;9.10;;;;;;;-1.77;98.65;98495.56;273455;1260;22312;-83
2023/11/26 20:09:37;;;;;;;19.40;9.20;;;;;;;-1.78;98.64;98498.78;272652;1267;22350;-83
2023/11/26 20:15:41;;;;;;;22.50;10.10;;;;;;;-1.80;98.57;98501.96;272414;1260;22530;-85
2023/11/26 20:21:45;;;;;;;;;;;;;;;-1.84;98.17;98499.65;272175;1266;23504;-83
2023/11/26 20:27:46;;;;;;;23.60;8.50;;;;;;;-1.88;98.32;98499.09;273510;1263;22965;-84
2023/11/26 20:33:47;;;;;;;21.30;8.90;;;;;;;-1.87;98.26;98497.20;273358;1267;23151;-85
2023/11/26 20:39:53;;;;;;;17.10;7.90;;;;;;;-1.90;98.01;98489.55;273427;1257;22229;-83
2023/11/26 20:45:55;;;;;;;13.60;7.30;;;;;;;-1.94;97.83;98477.99;273092;1266;22382;-84
2023/11/26 20:51:57;;;;;;;17.30;7.40;;;;;;;-1.98;97.85;98478.11;272460;1266;22662;-82
2023/11/26 20:57:58;;;;;;;16.80;7.00;;;;;;;-1.99;97.67;98489.17;272359;1267;22177;-85
2023/11/26 21:04:01;;;;;;;19.30;7.50;;;;;;;-1.95;97.49;98496.10;273040;1266;22347;-83
2023/11/26 21:10:05;;;;;;;16.60;7.70;;;;;;;-1.91;97.65;98497.69;273528;1266;22918;-84
2023/11/26 21:16:07;;;;;;;13.20;6.60;;;;;;;-1.89;97.26;98491.70;273251;1256;22232;-85
2023/11/26 21:22:08;;;;;;;13.30;6.80;;;;;;;-1.89;96.60;98495.74;273526;1267;22863;-83
2023/11/26 21:28:09;;;;;;;15.10;6.70;;;;;;;-1.88;96.40;98493.30;273570;1263;22262;-83
2023/11/26 21:34:10;;;;;;;21.90;8.00;;;;;;;-1.86;96.13;98488.36;273490;1267;22365;-83
2023/11/26 21:40:11;;;;;;;19.60;9.10;;;;;;;-1.84;96.24;98487.51;273397;1262;22486;-85
2023/11/26 21:46:21;;;;;;;26.20;10.60;;;;;;;-1.83;96.28;98484.16;273010;1260;22434;-83
2023/11/26 21:52:22;;;;;;;20.70;8.70;;;;;;;-1.84;96.60;98482.95;272307;1267;22305;-83
2023/11/26 21:58:23;;;;;;;22.00;10.20;;;;;;;-1.86;96.63;98480.96;273378;1267;22476;-82
2023/11/26 22:04:25;;;;;;;23.90;10.10;;;;;;;-1.88;96.60;98478.77;273351;1261;22401;-83
2023/11/26 22:10:26;;;;;;;21.10;10.50;;;;;;;-1.92;96.71;98475.74;273326;1260;22179;-83
2023/11/26 22:16:30;;;;;;;25.10;10.10;;;;;;;-1.92;97.00;98474.52;272840;1267;23394;-82
2023/11/26 22:22:31;;;;;;;20.90;9.50;;;;;;;-1.89;97.14;98472.34;272978;1267;23007;-83
2023/11/26 22:28:32;;;;;;;22.00;9.90;;;;;;;-1.87;97.15;98471.64;273486;1260;22440;-82
2023/11/26 22:34:35;;;;;;;18.30;8.40;;;;;;;-1.82;97.21;98475.55;273453;1267;23148;-82
2023/11/26 22:40:36;;;;;;;16.20;7.70;;;;;;;-1.78;97.05;98474.85;273097;1267;22705;-84
2023/11/26 22:46:37;;;;;;;15.60;7.30;;;;;;;-1.76;96.66;98469.92;272738;1260;22295;-82
2023/11/26 22:52:38;;;;;;;15.80;6.40;;;;;;;-1.75;96.23;98464.69;273535;1268;23059;-83
2023/11/26 22:58:39;;;;;;;17.10;6.70;;;;;;;-1.73;96.32;98459.59;272719;1269;24844;-82
2023/11/26 23:04:41;;;;;;;11.10;6.00;;;;;;;-1.71;96.18;98451.66;273537;1267;22301;-85
2023/11/26 23:10:42;;;;;;;14.50;7.10;;;;;;;-1.70;95.77;98451.15;271764;1254;22578;-82
2023/11/26 23:16:45;;;;;;;11.50;5.20;;;;;;;-1.68;95.94;98451.20;271170;1267;22380;-82
2023/11/26 23:22:46;;;;;;;13.60;5.80;;;;;;;-1.66;95.77;98449.38;273164;1267;22209;-82
2023/11/26 23:28:48;;;;;;;13.00;5.80;;;;;;;-1.65;95.39;98451.34;273462;1267;22389;-84
2023/11/26 23:34:50;;;;;;;19.00;7.20;;;;;;;-1.63;95.31;98448.69;273584;1267;22446;-82
2023/11/26 23:40:51;;;;;;;14.70;6.30;;;;;;;-1.59;95.22;98452.46;273336;1267;23727;-82
2023/11/26 23:46:52;;;;;;;12.60;5.50;;;;;;;-1.58;95.00;98451.15;273433;1260;22285;-83
2023/11/26 23:52:54;;;;;;;13.20;5.60;;;;;;;-1.57;94.82;98441.08;271560;1261;22571;-81
2023/11/26 23:58:55;;;;;;;13.50;5.40;;;;;;;-1.57;94.40;98440.54;270859;1267;23838;-81
